Weather observations for the past three days for
Starke County Airport
Imperial (Metric)
Date Time (cdt) Wind (mph) Vis. (mi.) Weather Sky Cond. Temperature (ºF) Relative Humidity Wind Chill (°F) Heat Index (°F) Pressure Precipitation (in)
Air Dwpt 6 hour altimeter (in) sea level (mb) 1 hr 3 hr 6 hr
Max. Min.
01 21:35 S 6 10.00 Fair CLR 78.8 78.8 100% 83 29.98 0.0
01 21:15 S 6 10.00 Fair CLR 78.8 78.8 100% 83 29.98 0.0
01 20:55 S 6 10.00 A Few Clouds FEW090 80.6 80.6 100% 89 29.97 0.0
01 20:35 S 5 10.00 Partly Cloudy SCT090 80.6 80.6 100% 89 29.98 0.0
01 20:15 S 6 10.00 Mostly Cloudy BKN090 82.4 80.6 94% 94 29.97 0.0
01 19:55 S 6 10.00 Mostly Cloudy BKN090 82.4 80.6 94% 94 29.97 0.0
01 19:35 S 6 10.00 Fair CLR 82.4 80.6 94% 94 29.96 0.0
01 19:15 S 5 10.00 Partly Cloudy SCT100 84.2 82.4 94% 101 29.96 0.0
01 18:55 S 5 10.00 Mostly Cloudy BKN090 86 82.4 91.8 86.2 89% 105 29.97 0.0
01 18:35 S 6 10.00 Fair CLR 87.8 82.4 84% 108 29.97 0.0
01 18:15 S 6 10.00 Fair CLR 89.6 80.6 75% 108 29.97 0.0
01 17:55 S 5 10.00 Fair CLR 89.6 82.4 79% 111 29.97 0.0
01 17:35 Vrbl 5 10.00 Fair CLR 89.6 80.6 75% 108 29.97 0.0
01 17:15 S 3 10.00 Fair CLR 91.4 80.6 71% 111 29.97 0.0
01 16:55 SW 6 10.00 Fair CLR 91.4 80.6 71% 111 29.97 0.0
01 16:35 S 8 10.00 Partly Cloudy SCT095 SCT110 91.4 80.6 71% 111 29.96 0.0
01 16:16 S 5 10.00 Mostly Cloudy BKN095 BKN110 89.6 80.6 75% 108 29.97 0.0
01 15:55 S 7 10.00 Partly Cloudy SCT095 91.4 80.6 71% 111 29.97 0.0
01 15:35 SW 7 10.00 Fair CLR 91.4 78.8 67% 108 29.97 0.0
01 15:15 S 8 10.00 Fair CLR 91.4 78.8 67% 108 29.98 0.0
01 14:55 S 7 10.00 Fair CLR 91.4 78.8 67% 108 29.98 0.0
01 14:35 SW 5 10.00 Fair CLR 91.4 78.8 67% 108 29.99 0.0
01 14:15 S 7 10.00 Fair CLR 91.4 78.8 67% 108 29.99 0.0
01 13:55 Vrbl 6 10.00 Fair CLR 89.6 78.8 71% 105 29.99 0.0
01 13:35 SW 8 10.00 Fair CLR 89.6 78.8 71% 105 29.99 0.0
01 13:15 W 6 10.00 Fair CLR 89.6 78.8 71% 105 29.99 0.0
01 12:55 SW 9 10.00 Fair CLR 89.6 78.8 89.1 72.1 71% 105 30 0.0
01 12:35 SW 8 10.00 A Few Clouds FEW120 87.8 78.8 75% 102 30 0.0
01 12:15 SW 8 10.00 Fair CLR 87.8 78.8 75% 102 30 0.0
01 11:55 SW 7 10.00 Fair CLR 87.8 78.8 75% 102 30 0.0 0.01
01 11:35 S 6 10.00 Fair CLR 86 78.8 79% 99 30 0.0
01 11:15 SW 8 10.00 A Few Clouds FEW120 86 78.8 79% 99 30 0.0
01 10:55 SW 9 10.00 Fair CLR 84.2 77 79% 94 30 0.0 0.01
01 10:35 SW 6 10.00 Fair CLR 84.2 77 79% 94 30 0.0
01 10:15 SW 8 10.00 Fair CLR 82.4 77 84% 91 30 0.0
01 09:55 SW 9 10.00 A Few Clouds FEW110 80.6 77 89% 87 30 0.0 0.03
01 09:35 SW 7 10.00 Partly Cloudy SCT110 78.8 77 94% 83 30 0.0
01 09:15 S 5 10.00 Partly Cloudy SCT110 75.2 75.2 100% 73 30.01 0.0
01 08:55 S 6 10.00 Mostly Cloudy BKN110 73.4 73.4 100% 30.01 0.0 0.04
01 08:35 S 8 10.00 Overcast OVC110 73.4 73.4 100% 30 0.0
01 08:15 Vrbl 3 7.00 Light Rain SCT065 SCT090 BKN110 73.4 73.4 100% 30.01 0.0
01 07:55 S 7 4.00 Light Rain Fog/Mist SCT043 SCT055 BKN110 73.4 73.4 100% 30.01 0.0 0.01
01 07:35 SW 6 4.00 Light Rain Fog/Mist FEW003 FEW055 BKN110 75.2 73.4 94% 74 30.01 0.0
01 07:15 SW 7 10.00 Light Rain FEW090 BKN110 75.2 73.4 94% 74 30.02 0.0
01 06:55 S 6 10.00 Mostly Cloudy BKN110 75.2 73.4 77.2 73 94% 74 29.99 0.0
01 06:35 W 6 10.00 Overcast OVC110 75.2 73.4 94% 74 30.01 0.0
01 06:15 SW 5 10.00 Overcast OVC110 73.4 73.4 100% 29.99 0.0
01 05:55 S 6 10.00 Overcast OVC110 75.2 73.4 94% 74 29.98 0.0 0.01
01 05:35 SW 6 10.00 Mostly Cloudy BKN110 75.2 73.4 94% 74 29.99 0.0
01 05:15 W 2 10.00 Mostly Cloudy BKN110 75.2 71.6 89% 75 29.98 0.0
01 04:55 SW 3 10.00 Overcast OVC110 75.2 71.6 89% 75 29.98 0.0
01 04:35 Calm 10.00 Mostly Cloudy BKN110 73.4 71.6 94% 29.98 0.0
01 04:15 S 6 10.00 Fair CLR 73.4 71.6 94% 29.98 0.0
01 03:55 S 7 10.00 Fair CLR 73.4 71.6 94% 29.98 0.0
01 03:35 S 6 10.00 Fair CLR 73.4 71.6 94% 29.97 0.0
01 03:15 S 7 10.00 Fair CLR 73.4 71.6 94% 29.97 0.0
01 02:55 S 7 10.00 Fair CLR 73.4 71.6 94% 29.96 0.0
01 02:35 S 6 10.00 Fair CLR 75.2 71.6 89% 75 29.96 0.0
01 02:15 SW 6 10.00 Fair CLR 75.2 71.6 89% 75 29.96 0.0
01 01:55 SW 7 10.00 Fair CLR 75.2 71.6 89% 75 29.96 0.0
01 01:35 SW 7 10.00 Fair CLR 75.2 71.6 89% 75 29.96 0.0
01 01:15 SW 6 10.00 Fair CLR 77 71.6 83% 78 29.96 0.0
01 00:55 SW 7 10.00 Fair CLR 77 71.6 82 76.1 83% 78 29.96 0.0
01 00:35 SW 8 10.00 Fair CLR 77 71.6 83% 78 29.97 0.0
01 00:15 SW 8 10.00 Fair CLR 77 71.6 83% 78 29.97 0.0
31 23:55 SW 7 10.00 Fair CLR 77 71.6 83% 78 29.97 0.0 0.01
31 23:35 S 6 10.00 Fair CLR 77 71.6 83% 78 29.96 0.0
31 23:15 S 8 10.00 Fair CLR 77 71.6 83% 78 29.96 0.0
31 22:55 S 7 10.00 Fair CLR 77 71.6 83% 78 29.96 0.0 0.01
31 22:35 S 6 10.00 Fair CLR 77 71.6 83% 78 29.97 0.0
31 22:15 S 7 10.00 Fair CLR 77 73.4 89% 78 29.97 0.0
31 21:55 S 8 10.00 Fair CLR 78.8 73.4 84% 82 29.97 0.0 0.03
31 21:35 S 8 10.00 Fair CLR 78.8 73.4 84% 82 29.97 0.0
31 21:15 SW 9 10.00 A Few Clouds FEW075 FEW090 78.8 75.2 89% 82 29.97 0.0
31 20:55 SW 9 10.00 Mostly Cloudy SCT044 BKN070 BKN090 78.8 75.2 89% 82 29.96 0.0 0.08
31 20:35 S 14 G 20 9.00 Light Rain SCT025 BKN043 OVC110 77 75.2 94% 78 29.93 0.0
31 20:15 SW 13 G 24 1.50 Light Rain Fog/Mist SCT003 BKN026 OVC100 77 75.2 94% 78 29.97 0.0
31 19:55 SW 8 10.00 Overcast OVC110 80.6 75.2 84% 86 29.99 0.0
31 19:35 S 6 10.00 Partly Cloudy SCT110 78.8 77 94% 83 29.97 0.0
31 19:15 S 5 10.00 Partly Cloudy SCT110 80.6 77 89% 87 29.97 0.0
31 18:35 SW 3 10.00 Mostly Cloudy BKN110 84.2 75.2 74% 92 29.98 0.0
31 18:16 S 6 10.00 Partly Cloudy SCT110 86 75.2 70% 95 29.97 0.0
31 17:55 S 6 10.00 Mostly Cloudy BKN110 87.8 73.4 62% 96 29.96 0.0
31 17:35 S 8 10.00 Partly Cloudy SCT110 87.8 73.4 62% 96 29.97 0.0
31 17:15 S 9 10.00 Fair CLR 87.8 73.4 62% 96 29.96 0.0
31 16:55 S 14 G 21 10.00 Fair CLR 87.8 73.4 62% 96 29.95 0.0
31 16:35 S 13 G 21 10.00 Fair CLR 89.6 73.4 59% 98 29.95 0.0
31 16:15 S 15 G 20 10.00 Fair CLR 89.6 73.4 59% 98 29.94 0.0
31 15:55 S 12 G 17 10.00 Fair CLR 89.6 73.4 59% 98 29.96 0.0
31 15:35 S 14 G 20 10.00 Fair CLR 89.6 73.4 59% 98 29.96 0.0
31 15:15 S 14 G 20 10.00 Fair CLR 89.6 73.4 59% 98 29.96 0.0
31 14:55 S 12 G 20 10.00 Fair CLR 89.6 73.4 59% 98 29.97 0.0
31 14:35 S 16 G 21 10.00 Fair CLR 87.8 71.6 59% 94 29.97 0.0
31 14:15 S 13 G 17 10.00 Fair CLR 87.8 73.4 62% 96 29.97 0.0
31 13:55 S 14 G 20 10.00 Fair CLR 87.8 73.4 62% 96 29.98 0.0
31 13:35 S 12 G 18 10.00 Fair CLR 86 75.2 70% 95 29.99 0.0
31 13:15 S 10 10.00 Fair CLR 82.4 75.2 79% 89 30 0.0
31 12:55 S 9 10.00 Fair CLR 82.4 73.4 82 71.2 74% 88 30.01 0.0
31 12:35 S 9 10.00 Fair CLR 80.6 75.2 84% 86 30.01 0.0
31 12:15 S 9 10.00 Fair CLR 78.8 73.4 84% 82 30.03 0.0
31 11:55 S 6 10.00 A Few Clouds FEW095 FEW120 77 73.4 89% 78 30.05 0.0
31 11:35 S 5 10.00 Mostly Cloudy FEW060 FEW095 BKN120 77 73.4 89% 78 30.05 0.0
31 11:15 S 5 10.00 Mostly Cloudy BKN120 75.2 73.4 94% 74 30.05 0.0
31 10:55 S 6 10.00 A Few Clouds FEW100 75.2 71.6 89% 75 30.04 0.0
31 10:35 Calm 10.00 A Few Clouds FEW085 FEW100 73.4 71.6 94% 30.05 0.0
31 10:15 S 8 10.00 A Few Clouds FEW120 73.4 71.6 94% 30.04 0.0
31 09:55 S 6 10.00 Mostly Cloudy BKN110 73.4 71.6 94% 30.04 0.0
31 09:35 S 7 10.00 Mostly Cloudy FEW085 SCT100 BKN120 73.4 71.6 94% 30.04 0.0
31 09:15 S 7 10.00 Partly Cloudy FEW075 SCT090 SCT110 73.4 69.8 89% 30.05 0.0
31 08:55 S 6 10.00 A Few Clouds FEW110 73.4 71.6 94% 30.04 0.0
31 08:35 S 7 10.00 Partly Cloudy FEW065 SCT095 SCT120 71.6 69.8 94% 30.04 0.0
31 08:15 S 7 10.00 Mostly Cloudy FEW060 SCT095 BKN110 71.6 69.8 94% 30.04 0.0
31 07:55 S 6 10.00 A Few Clouds FEW085 FEW110 71.6 69.8 94% 30.03 0.0
31 07:35 Vrbl 6 10.00 Fair CLR 71.6 69.8 94% 30.02 0.0
31 07:15 S 3 10.00 Fair CLR 71.6 69.8 94% 30.02 0.0
31 06:55 S 5 10.00 Partly Cloudy FEW048 FEW065 SCT110 71.6 69.8 73.2 68.2 94% 30.01 0.0
31 06:35 S 6 10.00 Partly Cloudy SCT110 71.6 69.8 94% 30 0.0
31 06:15 S 5 10.00 Fair CLR 69.8 69.8 100% 30 0.0
31 05:55 S 6 10.00 Fair CLR 69.8 69.8 100% 30 0.0
31 05:35 S 5 10.00 Fair CLR 69.8 69.8 100% 30 0.0
31 05:15 S 5 10.00 Fair CLR 69.8 69.8 100% 30 0.0
31 04:55 E 2 10.00 Fair CLR 69.8 69.8 100% 30 0.0
31 04:35 S 5 10.00 Fair CLR 69.8 69.8 100% 30 0.0
31 04:15 S 6 10.00 Fair CLR 71.6 71.6 100% 30 0.0
31 03:55 S 7 10.00 Fair CLR 71.6 71.6 100% 30 0.0
31 03:35 S 8 10.00 A Few Clouds FEW120 71.6 71.6 100% 29.99 0.0
31 03:15 S 7 10.00 Fair CLR 71.6 71.6 100% 30 0.0
31 02:55 S 6 10.00 Fair CLR 71.6 71.6 100% 30 0.0
31 02:35 S 5 10.00 Fair CLR 71.6 71.6 100% 30 0.0
31 02:15 SE 3 9.00 Fair CLR 69.8 69.8 100% 30 0.0
31 01:55 SE 2 10.00 Fair CLR 69.8 69.8 100% 30.01 0.0
31 01:35 SE 6 8.00 Fair CLR 69.8 69.8 100% 30.01 0.0
31 01:15 SE 5 10.00 Fair CLR 71.6 71.6 100% 30.01 0.0
31 00:55 SE 3 10.00 Fair CLR 73.4 73.4 74.7 72 100% 30.01 0.0
31 00:35 N 1 10.00 Mostly Cloudy FEW050 SCT070 BKN100 73.4 73.4 100% 30.01 0.0
31 00:15 S 6 10.00 Mostly Cloudy FEW055 BKN075 75.2 73.4 94% 74 30.01 0.0
30 23:55 S 8 10.00 A Few Clouds FEW048 FEW110 73.4 73.4 100% 30 0.0
30 23:35 S 6 10.00 Mostly Cloudy SCT048 BKN120 73.4 73.4 100% 30.02 0.0
30 23:15 S 5 10.00 Mostly Cloudy SCT048 SCT080 BKN120 73.4 73.4 100% 30.02 0.0
30 22:55 S 6 10.00 Partly Cloudy FEW095 SCT110 73.4 73.4 100% 30.02 0.0
30 22:35 S 3 8.00 Mostly Cloudy FEW060 BKN100 BKN120 73.4 73.4 100% 30.03 0.0
30 22:15 SE 3 10.00 Overcast OVC100 73.4 73.4 100% 30.03 0.0
30 21:55 S 2 10.00 Overcast FEW050 OVC110 73.4 73.4 100% 30.03 0.0
30 21:35 S 3 10.00 Overcast FEW050 FEW070 OVC110 73.4 73.4 100% 30.03 0.0
30 21:15 S 3 8.00 Mostly Cloudy SCT065 SCT075 BKN110 75.2 73.4 94% 74 30.02 0.0
30 20:55 S 5 10.00 Partly Cloudy FEW050 SCT120 73.4 73.4 100% 30.01 0.0
30 20:35 S 5 10.00 Partly Cloudy SCT050 73.4 73.4 100% 30.02 0.0
30 20:15 S 5 10.00 Fair CLR 73.4 73.4 100% 30.01 0.0
30 19:55 S 7 10.00 Fair CLR 71.6 71.6 100% 30.01 0.0
30 19:35 S 5 10.00 Fair CLR 73.4 73.4 100% 30.02 0.0
30 19:15 S 3 10.00 Fair CLR 73.4 73.4 100% 30.02 0.0
30 18:55 SE 3 10.00 Fair CLR 75.2 75.2 80.8 74.7 100% 73 30.02 0.0
30 18:35 SE 3 10.00 Fair CLR 75.2 75.2 100% 73 30.02 0.0
30 18:15 SE 3 10.00 Fair CLR 75.2 75.2 100% 73 30.03 0.0
30 17:55 NE 2 10.00 Fair CLR 75.2 75.2 100% 73 30.03 0.0
30 17:35 SE 5 10.00 Fair CLR 77 75.2 94% 78 30.03 0.0
30 17:15 SE 6 10.00 Fair CLR 78.8 75.2 89% 82 30.03 0.0
30 16:55 E 3 10.00 Fair CLR 80.6 75.2 84% 86 30.04 0.0
30 16:35 N 1 10.00 Fair CLR 80.6 73.4 79% 85 30.05 0.0
30 16:15 SW 1 10.00 Partly Cloudy SCT110 80.6 71.6 74% 85 30.05 0.0
30 15:55 SW 1 10.00 Mostly Cloudy BKN110 78.8 71.6 79% 82 30.05 0.0
30 15:35 Vrbl 2 10.00 Partly Cloudy SCT110 80.6 71.6 74% 85 30.06 0.0
30 15:15 SW 8 G 18 10.00 Fair CLR 80.6 69.8 70% 84 30.03 0.0
30 14:55 S 12 G 16 10.00 A Few Clouds FEW110 80.6 69.8 70% 84 30.02 0.0
30 14:35 S 12 G 21 10.00 A Few Clouds FEW110 80.6 69.8 70% 84 30.02 0.0
30 14:15 S 12 G 21 10.00 Fair CLR 80.6 69.8 70% 84 30.01 0.0
30 13:55 S 10 G 20 10.00 A Few Clouds FEW120 80.6 69.8 70% 84 30.02 0.0
30 13:35 S 12 G 18 10.00 A Few Clouds FEW120 80.6 71.6 74% 85 30.03 0.0
30 13:15 SW 16 G 21 10.00 A Few Clouds FEW110 78.8 71.6 79% 82 30.04 0.0
30 12:55 S 10 G 17 10.00 Mostly Cloudy BKN110 75.2 71.6 75.4 67.5 89% 75 30.05 0.0
30 12:35 S 9 G 20 10.00 Mostly Cloudy BKN110 75.2 69.8 83% 75 30.03 0.0
30 12:15 S 9 10.00 Mostly Cloudy BKN110 73.4 69.8 89% 30.02 0.0
30 11:55 S 7 10.00 Mostly Cloudy BKN110 71.6 69.8 94% 30.04 0.0 0.01
30 11:35 S 10 10.00 Mostly Cloudy BKN110 71.6 69.8 94% 30.05 0.0
30 11:15 S 9 10.00 Partly Cloudy SCT110 69.8 69.8 100% 30.06 0.0
30 10:55 S 10 10.00 A Few Clouds FEW120 68 68 100% 30.06 0.0 0.03
30 10:35 S 9 8.00 Light Rain FEW065 FEW080 68 68 100% 30.07 0.0
30 10:15 SE 7 4.00 Light Rain Fog/Mist CLR 68 68 100% 30.09 0.0
30 09:55 SE 7 7.00 Light Rain Fog/Mist FEW100 FEW120 68 68 100% 30.1 0.0 0.02
30 09:35 S 6 10.00 Light Rain SCT090 BKN110 68 68 100% 30.1 0.0
30 09:15 SW 6 9.00 Light Rain SCT090 SCT110 68 68 100% 30.11 0.0
30 08:55 SW 3 6.00 Light Rain Fog/Mist FEW075 FEW090 SCT110 68 68 100% 30.1 0.0
30 08:35 S 3 10.00 Light Rain FEW070 SCT100 BKN120 68 66.2 94% 30.09 0.0
30 08:15 S 6 10.00 Mostly Cloudy BKN110 69.8 66.2 88% 30.08 0.0
30 07:55 S 5 10.00 Mostly Cloudy BKN110 68 66.2 94% 30.08 0.0
30 07:35 S 7 10.00 Mostly Cloudy BKN110 68 66.2 94% 30.07 0.0
30 07:15 S 9 10.00 Mostly Cloudy BKN110 68 66.2 94% 30.05 0.0
30 06:55 S 7 10.00 Mostly Cloudy BKN110 68 66.2 70.5 66.6 94% 30.04 0.0
30 06:35 S 7 10.00 A Few Clouds FEW110 68 66.2 94% 30.04 0.0
30 06:15 S 7 10.00 Fair CLR 66.2 66.2 100% 30.04 0.0
30 05:55 S 7 10.00 Partly Cloudy SCT110 66.2 66.2 100% 30.03 0.0
30 05:35 S 8 10.00 Mostly Cloudy SCT070 SCT085 BKN110 68 66.2 94% 30.04 0.0
30 05:15 Calm 10.00 Partly Cloudy FEW090 SCT110 68 66.2 94% 30.04 0.0
30 04:55 SE 7 10.00 Mostly Cloudy FEW060 SCT070 BKN100 68 66.2 94% 30.05 0.0 0.01
30 04:35 SE 5 10.00 Overcast FEW050 SCT070 OVC100 68 66.2 94% 30.05 0.0
30 04:15 Vrbl 2 10.00 Overcast BKN050 BKN080 OVC100 66.2 66.2 100% 30.06 0.0
30 03:55 Vrbl 3 3.00 Light Rain Fog/Mist SCT003 BKN025 OVC070 68 64.4 88% 30.07 0.0 0.02
30 03:35 Vrbl 3 10.00 Overcast SCT055 BKN065 OVC100 69.8 62.6 78% 30.06 0.0
30 03:15 Vrbl 6 10.00 Overcast OVC110 69.8 62.6 78% 30.04 0.0
30 02:55 S 8 10.00 Overcast OVC110 69.8 62.6 78% 30.03 0.0
30 02:35 S 8 10.00 Overcast OVC110 69.8 62.6 78% 30.03 0.0
30 02:15 S 9 10.00 Partly Cloudy SCT110 69.8 62.6 78% 30.04 0.0
30 01:55 S 7 10.00 Partly Cloudy SCT110 69.8 64.4 83% 30.04 0.0
30 01:35 S 8 10.00 Mostly Cloudy BKN110 69.8 64.4 83% 30.05 0.0
30 01:15 S 7 10.00 Partly Cloudy SCT110 69.8 64.4 83% 30.06 0.0
30 00:55 S 7 10.00 Mostly Cloudy BKN110 69.8 64.4 73.2 66.4 83% 30.06 0.0
30 00:35 S 7 10.00 Mostly Cloudy FEW060 BKN110 69.8 64.4 83% 30.07 0.0
30 00:15 S 7 10.00 Partly Cloudy SCT120 69.8 64.4 83% 30.07 0.0
29 23:55 S 7 10.00 Partly Cloudy SCT120 69.8 66.2 88% 30.07 0.0
29 23:35 S 7 10.00 Partly Cloudy SCT120 69.8 66.2 88% 30.08 0.0
29 23:15 S 6 10.00 Partly Cloudy SCT120 69.8 66.2 88% 30.08 0.0
29 22:55 S 6 10.00 A Few Clouds FEW110 69.8 66.2 88% 30.07 0.0
29 22:35 S 6 10.00 Fair CLR 68 68 100% 30.08 0.0
29 22:15 S 6 10.00 A Few Clouds FEW120 66.2 66.2 100% 30.08 0.0
29 21:55 SE 5 10.00 A Few Clouds FEW120 66.2 66.2 100% 30.08 0.0
Date Time (cdt) Wind (mph) Vis. (mi.) Weather Sky Cond. Air Dwpt Max. Min. Relative Humidity Wind Chill (°F) Heat Index (°F) altimeter (in) sea level (mb) 1 hr 3 hr 6 hr
6 hour
Temperature (ºF) Pressure Precipitation (in)